sensor_id;sensor_type;location;lat;lon;timestamp;P1;durP1;ratioP1;P2;durP2;ratioP2
20653;SDS011;21083;50.898;4.902;2023-09-19T00:02:26;12.23;;;2.10;;
20653;SDS011;21083;50.898;4.902;2023-09-19T00:04:54;13.63;;;2.28;;
20653;SDS011;21083;50.898;4.902;2023-09-19T00:07:21;13.50;;;2.60;;
20653;SDS011;21083;50.898;4.902;2023-09-19T00:09:48;14.75;;;2.60;;
20653;SDS011;21083;50.898;4.902;2023-09-19T00:12:15;15.90;;;2.42;;
20653;SDS011;21083;50.898;4.902;2023-09-19T00:14:43;15.95;;;1.98;;
20653;SDS011;21083;50.898;4.902;2023-09-19T00:17:11;12.95;;;2.75;;
20653;SDS011;21083;50.898;4.902;2023-09-19T00:19:38;14.15;;;2.80;;
20653;SDS011;21083;50.898;4.902;2023-09-19T00:22:08;17.00;;;2.45;;
20653;SDS011;21083;50.898;4.902;2023-09-19T00:24:35;15.07;;;2.50;;
20653;SDS011;21083;50.898;4.902;2023-09-19T00:27:02;19.10;;;2.35;;
20653;SDS011;21083;50.898;4.902;2023-09-19T00:29:30;12.05;;;1.80;;
20653;SDS011;21083;50.898;4.902;2023-09-19T00:31:58;12.50;;;2.55;;
20653;SDS011;21083;50.898;4.902;2023-09-19T00:34:27;15.02;;;2.63;;
20653;SDS011;21083;50.898;4.902;2023-09-19T00:36:55;15.10;;;2.42;;
20653;SDS011;21083;50.898;4.902;2023-09-19T00:39:22;15.27;;;2.60;;
20653;SDS011;21083;50.898;4.902;2023-09-19T00:41:50;12.05;;;2.72;;
20653;SDS011;21083;50.898;4.902;2023-09-19T00:44:18;22.40;;;2.85;;
20653;SDS011;21083;50.898;4.902;2023-09-19T00:46:48;16.35;;;2.42;;
20653;SDS011;21083;50.898;4.902;2023-09-19T00:49:15;20.20;;;3.78;;
20653;SDS011;21083;50.898;4.902;2023-09-19T00:51:47;10.57;;;2.30;;
20653;SDS011;21083;50.898;4.902;2023-09-19T00:54:14;17.73;;;2.92;;
20653;SDS011;21083;50.898;4.902;2023-09-19T00:56:44;12.55;;;2.47;;
20653;SDS011;21083;50.898;4.902;2023-09-19T00:59:12;18.27;;;2.45;;
20653;SDS011;21083;50.898;4.902;2023-09-19T01:01:39;20.92;;;2.72;;
20653;SDS011;21083;50.898;4.902;2023-09-19T01:04:06;14.10;;;2.85;;
20653;SDS011;21083;50.898;4.902;2023-09-19T01:06:34;12.00;;;2.13;;
20653;SDS011;21083;50.898;4.902;2023-09-19T01:09:03;11.68;;;2.30;;
20653;SDS011;21083;50.898;4.902;2023-09-19T01:11:32;16.85;;;2.58;;
20653;SDS011;21083;50.898;4.902;2023-09-19T01:14:09;15.75;;;2.58;;
20653;SDS011;21083;50.898;4.902;2023-09-19T01:16:48;13.88;;;2.85;;
20653;SDS011;21083;50.898;4.902;2023-09-19T01:19:42;17.63;;;2.60;;
20653;SDS011;21083;50.898;4.902;2023-09-19T01:22:44;16.25;;;3.40;;
20653;SDS011;21083;50.898;4.902;2023-09-19T01:28:37;13.90;;;2.40;;
20653;SDS011;21083;50.898;4.902;2023-09-19T01:31:22;16.50;;;2.47;;
20653;SDS011;21083;50.898;4.902;2023-09-19T01:33:58;18.15;;;2.53;;
20653;SDS011;21083;50.898;4.902;2023-09-19T01:36:27;15.45;;;2.42;;
20653;SDS011;21083;50.898;4.902;2023-09-19T01:38:55;19.20;;;2.35;;
20653;SDS011;21083;50.898;4.902;2023-09-19T01:41:30;14.45;;;2.20;;
20653;SDS011;21083;50.898;4.902;2023-09-19T01:44:05;15.43;;;3.28;;
20653;SDS011;21083;50.898;4.902;2023-09-19T01:46:38;11.00;;;2.88;;
20653;SDS011;21083;50.898;4.902;2023-09-19T01:49:10;15.38;;;2.53;;
20653;SDS011;21083;50.898;4.902;2023-09-19T01:51:46;17.73;;;2.85;;
20653;SDS011;21083;50.898;4.902;2023-09-19T01:54:23;19.38;;;2.50;;
20653;SDS011;21083;50.898;4.902;2023-09-19T01:56:57;17.45;;;3.15;;
20653;SDS011;21083;50.898;4.902;2023-09-19T01:59:31;14.73;;;2.78;;
20653;SDS011;21083;50.898;4.902;2023-09-19T02:02:04;12.48;;;2.40;;
20653;SDS011;21083;50.898;4.902;2023-09-19T02:04:33;13.00;;;2.13;;
20653;SDS011;21083;50.898;4.902;2023-09-19T02:07:01;13.68;;;2.63;;
20653;SDS011;21083;50.898;4.902;2023-09-19T02:09:30;16.50;;;2.42;;
20653;SDS011;21083;50.898;4.902;2023-09-19T02:12:00;17.30;;;2.35;;
20653;SDS011;21083;50.898;4.902;2023-09-19T02:14:29;12.90;;;2.50;;
20653;SDS011;21083;50.898;4.902;2023-09-19T02:16:57;17.25;;;2.65;;
20653;SDS011;21083;50.898;4.902;2023-09-19T02:19:27;14.40;;;2.15;;
20653;SDS011;21083;50.898;4.902;2023-09-19T02:21:55;15.10;;;3.47;;
20653;SDS011;21083;50.898;4.902;2023-09-19T02:24:23;22.20;;;3.33;;
20653;SDS011;21083;50.898;4.902;2023-09-19T02:26:52;17.10;;;2.33;;
20653;SDS011;21083;50.898;4.902;2023-09-19T02:29:19;19.88;;;2.90;;
20653;SDS011;21083;50.898;4.902;2023-09-19T02:31:47;25.38;;;3.13;;
20653;SDS011;21083;50.898;4.902;2023-09-19T02:34:14;19.15;;;2.83;;
20653;SDS011;21083;50.898;4.902;2023-09-19T02:36:43;15.05;;;2.40;;
20653;SDS011;21083;50.898;4.902;2023-09-19T02:39:11;13.30;;;2.20;;
20653;SDS011;21083;50.898;4.902;2023-09-19T02:41:38;13.68;;;2.25;;
20653;SDS011;21083;50.898;4.902;2023-09-19T02:44:06;17.02;;;2.55;;
20653;SDS011;21083;50.898;4.902;2023-09-19T02:46:33;20.33;;;3.53;;
20653;SDS011;21083;50.898;4.902;2023-09-19T02:49:02;16.90;;;2.90;;
20653;SDS011;21083;50.898;4.902;2023-09-19T02:51:30;12.90;;;2.65;;
20653;SDS011;21083;50.898;4.902;2023-09-19T02:53:59;15.55;;;2.72;;
20653;SDS011;21083;50.898;4.902;2023-09-19T02:56:28;14.68;;;2.22;;
20653;SDS011;21083;50.898;4.902;2023-09-19T02:58:55;18.20;;;2.85;;
20653;SDS011;21083;50.898;4.902;2023-09-19T03:01:22;14.88;;;2.65;;
20653;SDS011;21083;50.898;4.902;2023-09-19T03:03:49;18.05;;;2.45;;
20653;SDS011;21083;50.898;4.902;2023-09-19T03:06:17;14.85;;;2.65;;
20653;SDS011;21083;50.898;4.902;2023-09-19T03:08:45;23.20;;;2.67;;
20653;SDS011;21083;50.898;4.902;2023-09-19T03:11:15;16.42;;;2.72;;
20653;SDS011;21083;50.898;4.902;2023-09-19T03:13:46;13.77;;;2.80;;
20653;SDS011;21083;50.898;4.902;2023-09-19T03:16:16;33.40;;;3.35;;
20653;SDS011;21083;50.898;4.902;2023-09-19T03:18:44;14.30;;;2.42;;
20653;SDS011;21083;50.898;4.902;2023-09-19T03:21:12;20.90;;;3.20;;
20653;SDS011;21083;50.898;4.902;2023-09-19T03:23:39;16.70;;;3.58;;
20653;SDS011;21083;50.898;4.902;2023-09-19T03:26:08;19.52;;;2.95;;
20653;SDS011;21083;50.898;4.902;2023-09-19T03:28:36;19.75;;;3.65;;
20653;SDS011;21083;50.898;4.902;2023-09-19T03:31:04;14.70;;;3.00;;
20653;SDS011;21083;50.898;4.902;2023-09-19T03:33:32;20.02;;;3.40;;
20653;SDS011;21083;50.898;4.902;2023-09-19T03:36:00;21.27;;;3.65;;
20653;SDS011;21083;50.898;4.902;2023-09-19T03:38:30;18.33;;;2.83;;
20653;SDS011;21083;50.898;4.902;2023-09-19T03:40:57;18.65;;;3.15;;
20653;SDS011;21083;50.898;4.902;2023-09-19T03:43:24;12.52;;;2.90;;
20653;SDS011;21083;50.898;4.902;2023-09-19T03:45:53;13.18;;;2.85;;
20653;SDS011;21083;50.898;4.902;2023-09-19T03:48:20;18.88;;;3.10;;
20653;SDS011;21083;50.898;4.902;2023-09-19T03:50:48;18.65;;;3.15;;
20653;SDS011;21083;50.898;4.902;2023-09-19T03:53:16;11.70;;;3.30;;
20653;SDS011;21083;50.898;4.902;2023-09-19T03:55:44;17.05;;;2.90;;
20653;SDS011;21083;50.898;4.902;2023-09-19T03:58:12;11.77;;;2.30;;
20653;SDS011;21083;50.898;4.902;2023-09-19T04:00:39;13.85;;;2.65;;
20653;SDS011;21083;50.898;4.902;2023-09-19T04:03:07;18.60;;;3.30;;
20653;SDS011;21083;50.898;4.902;2023-09-19T04:05:43;12.25;;;2.38;;
20653;SDS011;21083;50.898;4.902;2023-09-19T04:08:11;17.80;;;2.75;;
20653;SDS011;21083;50.898;4.902;2023-09-19T04:10:41;21.88;;;3.83;;
20653;SDS011;21083;50.898;4.902;2023-09-19T04:13:09;15.50;;;2.75;;
20653;SDS011;21083;50.898;4.902;2023-09-19T04:15:37;13.90;;;2.38;;
20653;SDS011;21083;50.898;4.902;2023-09-19T04:18:05;16.48;;;3.05;;
20653;SDS011;21083;50.898;4.902;2023-09-19T04:20:33;13.70;;;2.65;;
20653;SDS011;21083;50.898;4.902;2023-09-19T04:23:00;14.38;;;2.53;;
20653;SDS011;21083;50.898;4.902;2023-09-19T04:25:29;13.60;;;2.20;;
20653;SDS011;21083;50.898;4.902;2023-09-19T04:27:57;16.70;;;2.72;;
20653;SDS011;21083;50.898;4.902;2023-09-19T04:30:24;13.80;;;2.80;;
20653;SDS011;21083;50.898;4.902;2023-09-19T04:32:52;17.27;;;2.83;;
20653;SDS011;21083;50.898;4.902;2023-09-19T04:35:19;19.05;;;3.58;;
20653;SDS011;21083;50.898;4.902;2023-09-19T04:37:47;20.65;;;2.58;;
20653;SDS011;21083;50.898;4.902;2023-09-19T04:40:14;17.15;;;3.10;;
20653;SDS011;21083;50.898;4.902;2023-09-19T04:42:42;16.33;;;2.85;;
20653;SDS011;21083;50.898;4.902;2023-09-19T04:45:10;15.43;;;2.50;;
20653;SDS011;21083;50.898;4.902;2023-09-19T04:47:37;15.75;;;2.90;;
20653;SDS011;21083;50.898;4.902;2023-09-19T04:50:05;20.92;;;2.88;;
20653;SDS011;21083;50.898;4.902;2023-09-19T04:52:39;15.63;;;2.58;;
20653;SDS011;21083;50.898;4.902;2023-09-19T04:55:11;17.38;;;2.88;;
20653;SDS011;21083;50.898;4.902;2023-09-19T04:57:41;21.15;;;2.95;;
20653;SDS011;21083;50.898;4.902;2023-09-19T05:00:10;16.83;;;2.58;;
20653;SDS011;21083;50.898;4.902;2023-09-19T05:02:40;16.77;;;2.78;;
20653;SDS011;21083;50.898;4.902;2023-09-19T05:05:07;14.13;;;2.58;;
20653;SDS011;21083;50.898;4.902;2023-09-19T05:07:36;19.75;;;3.15;;
20653;SDS011;21083;50.898;4.902;2023-09-19T05:10:03;15.27;;;2.50;;
20653;SDS011;21083;50.898;4.902;2023-09-19T05:12:33;26.15;;;3.70;;
20653;SDS011;21083;50.898;4.902;2023-09-19T05:15:01;13.38;;;2.30;;
20653;SDS011;21083;50.898;4.902;2023-09-19T05:17:28;15.27;;;2.10;;
20653;SDS011;21083;50.898;4.902;2023-09-19T05:19:56;26.60;;;3.28;;
20653;SDS011;21083;50.898;4.902;2023-09-19T05:22:26;19.23;;;2.55;;
20653;SDS011;21083;50.898;4.902;2023-09-19T05:24:54;16.27;;;3.38;;
20653;SDS011;21083;50.898;4.902;2023-09-19T05:27:21;14.20;;;2.42;;
20653;SDS011;21083;50.898;4.902;2023-09-19T05:29:49;20.60;;;3.55;;
20653;SDS011;21083;50.898;4.902;2023-09-19T05:32:18;18.30;;;3.22;;
20653;SDS011;21083;50.898;4.902;2023-09-19T05:34:45;17.10;;;3.08;;
20653;SDS011;21083;50.898;4.902;2023-09-19T05:37:12;24.15;;;4.15;;
20653;SDS011;21083;50.898;4.902;2023-09-19T05:39:41;15.95;;;2.40;;
20653;SDS011;21083;50.898;4.902;2023-09-19T05:42:08;14.85;;;2.95;;
20653;SDS011;21083;50.898;4.902;2023-09-19T05:44:35;11.77;;;2.88;;
20653;SDS011;21083;50.898;4.902;2023-09-19T05:47:05;15.60;;;2.53;;
20653;SDS011;21083;50.898;4.902;2023-09-19T05:49:34;15.55;;;2.50;;
20653;SDS011;21083;50.898;4.902;2023-09-19T05:52:03;11.75;;;2.10;;
20653;SDS011;21083;50.898;4.902;2023-09-19T05:54:31;18.20;;;2.60;;
20653;SDS011;21083;50.898;4.902;2023-09-19T05:56:59;14.95;;;2.75;;
20653;SDS011;21083;50.898;4.902;2023-09-19T05:59:26;18.10;;;2.20;;
20653;SDS011;21083;50.898;4.902;2023-09-19T06:01:54;14.18;;;2.42;;
20653;SDS011;21083;50.898;4.902;2023-09-19T06:04:22;17.15;;;2.80;;
20653;SDS011;21083;50.898;4.902;2023-09-19T06:06:50;17.00;;;2.85;;
20653;SDS011;21083;50.898;4.902;2023-09-19T06:09:17;18.20;;;2.92;;
20653;SDS011;21083;50.898;4.902;2023-09-19T06:11:45;15.18;;;2.53;;
20653;SDS011;21083;50.898;4.902;2023-09-19T06:14:11;13.10;;;2.05;;
20653;SDS011;21083;50.898;4.902;2023-09-19T06:16:39;21.20;;;3.42;;
20653;SDS011;21083;50.898;4.902;2023-09-19T06:19:07;15.05;;;2.83;;
20653;SDS011;21083;50.898;4.902;2023-09-19T06:21:35;13.52;;;2.05;;
20653;SDS011;21083;50.898;4.902;2023-09-19T06:24:02;11.82;;;2.33;;
20653;SDS011;21083;50.898;4.902;2023-09-19T06:26:30;15.07;;;1.95;;
20653;SDS011;21083;50.898;4.902;2023-09-19T06:28:57;14.80;;;2.60;;
20653;SDS011;21083;50.898;4.902;2023-09-19T06:31:24;15.25;;;2.30;;
20653;SDS011;21083;50.898;4.902;2023-09-19T06:33:52;23.48;;;3.05;;
20653;SDS011;21083;50.898;4.902;2023-09-19T06:36:19;13.13;;;2.05;;
20653;SDS011;21083;50.898;4.902;2023-09-19T06:38:48;14.43;;;2.38;;
20653;SDS011;21083;50.898;4.902;2023-09-19T06:41:16;18.40;;;2.67;;
20653;SDS011;21083;50.898;4.902;2023-09-19T06:43:43;18.38;;;2.25;;
20653;SDS011;21083;50.898;4.902;2023-09-19T06:46:10;19.35;;;2.53;;
20653;SDS011;21083;50.898;4.902;2023-09-19T06:48:38;17.17;;;2.97;;
20653;SDS011;21083;50.898;4.902;2023-09-19T06:51:04;21.33;;;3.40;;
20653;SDS011;21083;50.898;4.902;2023-09-19T06:53:33;15.65;;;2.83;;
20653;SDS011;21083;50.898;4.902;2023-09-19T06:56:02;10.00;;;2.20;;
20653;SDS011;21083;50.898;4.902;2023-09-19T06:58:30;14.30;;;2.80;;
20653;SDS011;21083;50.898;4.902;2023-09-19T07:00:57;13.65;;;2.33;;
20653;SDS011;21083;50.898;4.902;2023-09-19T07:03:24;14.82;;;2.63;;
20653;SDS011;21083;50.898;4.902;2023-09-19T07:05:53;19.52;;;2.38;;
20653;SDS011;21083;50.898;4.902;2023-09-19T07:08:21;16.80;;;2.97;;
20653;SDS011;21083;50.898;4.902;2023-09-19T07:10:48;11.88;;;2.35;;
20653;SDS011;21083;50.898;4.902;2023-09-19T07:13:19;15.77;;;2.50;;
20653;SDS011;21083;50.898;4.902;2023-09-19T07:15:46;14.57;;;2.55;;
20653;SDS011;21083;50.898;4.902;2023-09-19T07:18:15;18.05;;;3.35;;
20653;SDS011;21083;50.898;4.902;2023-09-19T07:20:43;22.25;;;3.03;;
20653;SDS011;21083;50.898;4.902;2023-09-19T07:23:14;16.42;;;2.58;;
20653;SDS011;21083;50.898;4.902;2023-09-19T07:25:43;20.13;;;2.72;;
20653;SDS011;21083;50.898;4.902;2023-09-19T07:28:11;15.73;;;3.25;;
20653;SDS011;21083;50.898;4.902;2023-09-19T07:30:40;17.95;;;2.40;;
20653;SDS011;21083;50.898;4.902;2023-09-19T07:33:07;16.52;;;2.33;;
20653;SDS011;21083;50.898;4.902;2023-09-19T07:35:36;16.45;;;2.70;;
20653;SDS011;21083;50.898;4.902;2023-09-19T07:38:05;11.18;;;2.00;;
20653;SDS011;21083;50.898;4.902;2023-09-19T07:40:33;21.05;;;2.72;;
20653;SDS011;21083;50.898;4.902;2023-09-19T07:43:00;14.45;;;2.58;;
20653;SDS011;21083;50.898;4.902;2023-09-19T07:45:29;14.80;;;2.28;;
20653;SDS011;21083;50.898;4.902;2023-09-19T07:47:57;18.25;;;2.33;;
20653;SDS011;21083;50.898;4.902;2023-09-19T07:50:29;12.05;;;2.42;;
20653;SDS011;21083;50.898;4.902;2023-09-19T07:52:57;13.35;;;2.55;;
20653;SDS011;21083;50.898;4.902;2023-09-19T07:55:24;12.32;;;2.13;;
20653;SDS011;21083;50.898;4.902;2023-09-19T07:57:51;12.63;;;2.97;;
20653;SDS011;21083;50.898;4.902;2023-09-19T08:00:19;15.23;;;2.85;;
20653;SDS011;21083;50.898;4.902;2023-09-19T08:02:46;13.48;;;2.63;;
20653;SDS011;21083;50.898;4.902;2023-09-19T08:05:15;13.02;;;2.20;;
20653;SDS011;21083;50.898;4.902;2023-09-19T08:07:44;12.30;;;2.63;;
20653;SDS011;21083;50.898;4.902;2023-09-19T08:10:13;15.85;;;2.30;;
20653;SDS011;21083;50.898;4.902;2023-09-19T08:12:45;19.63;;;2.78;;
20653;SDS011;21083;50.898;4.902;2023-09-19T08:15:13;13.38;;;2.25;;
20653;SDS011;21083;50.898;4.902;2023-09-19T08:17:40;17.83;;;2.92;;
20653;SDS011;21083;50.898;4.902;2023-09-19T08:20:08;17.13;;;2.78;;
20653;SDS011;21083;50.898;4.902;2023-09-19T08:22:44;16.15;;;2.75;;
20653;SDS011;21083;50.898;4.902;2023-09-19T08:25:13;17.10;;;2.60;;
20653;SDS011;21083;50.898;4.902;2023-09-19T08:27:42;17.60;;;2.55;;
20653;SDS011;21083;50.898;4.902;2023-09-19T08:30:13;17.67;;;2.70;;
20653;SDS011;21083;50.898;4.902;2023-09-19T08:32:40;16.10;;;2.40;;
20653;SDS011;21083;50.898;4.902;2023-09-19T08:35:08;17.90;;;3.20;;
20653;SDS011;21083;50.898;4.902;2023-09-19T08:37:35;18.40;;;2.13;;
20653;SDS011;21083;50.898;4.902;2023-09-19T08:40:04;15.80;;;2.45;;
20653;SDS011;21083;50.898;4.902;2023-09-19T08:42:46;16.35;;;1.95;;
20653;SDS011;21083;50.898;4.902;2023-09-19T08:45:15;19.33;;;2.88;;
20653;SDS011;21083;50.898;4.902;2023-09-19T08:47:44;16.08;;;2.72;;
20653;SDS011;21083;50.898;4.902;2023-09-19T08:50:16;13.55;;;2.15;;
20653;SDS011;21083;50.898;4.902;2023-09-19T08:52:49;18.77;;;2.35;;
20653;SDS011;21083;50.898;4.902;2023-09-19T08:55:22;18.48;;;2.67;;
20653;SDS011;21083;50.898;4.902;2023-09-19T08:57:54;17.88;;;2.45;;
20653;SDS011;21083;50.898;4.902;2023-09-19T09:00:27;14.30;;;2.28;;
20653;SDS011;21083;50.898;4.902;2023-09-19T09:02:55;19.52;;;2.88;;
20653;SDS011;21083;50.898;4.902;2023-09-19T09:05:23;15.63;;;2.40;;
20653;SDS011;21083;50.898;4.902;2023-09-19T09:07:51;16.55;;;2.88;;
20653;SDS011;21083;50.898;4.902;2023-09-19T09:10:21;16.65;;;3.15;;
20653;SDS011;21083;50.898;4.902;2023-09-19T09:12:49;22.15;;;3.08;;
20653;SDS011;21083;50.898;4.902;2023-09-19T09:15:19;19.25;;;3.03;;
20653;SDS011;21083;50.898;4.902;2023-09-19T09:17:48;11.10;;;2.15;;
20653;SDS011;21083;50.898;4.902;2023-09-19T09:20:16;17.30;;;3.15;;
20653;SDS011;21083;50.898;4.902;2023-09-19T09:22:50;16.05;;;2.20;;
20653;SDS011;21083;50.898;4.902;2023-09-19T09:25:18;18.70;;;2.75;;
20653;SDS011;21083;50.898;4.902;2023-09-19T09:27:59;19.48;;;2.58;;
20653;SDS011;21083;50.898;4.902;2023-09-19T09:30:32;11.85;;;2.22;;
20653;SDS011;21083;50.898;4.902;2023-09-19T09:33:09;13.75;;;2.42;;
20653;SDS011;21083;50.898;4.902;2023-09-19T09:35:37;19.95;;;3.65;;
20653;SDS011;21083;50.898;4.902;2023-09-19T09:38:13;18.33;;;2.40;;
20653;SDS011;21083;50.898;4.902;2023-09-19T09:40:48;15.93;;;2.13;;
20653;SDS011;21083;50.898;4.902;2023-09-19T09:43:28;21.55;;;2.83;;
20653;SDS011;21083;50.898;4.902;2023-09-19T09:49:01;13.82;;;2.30;;
20653;SDS011;21083;50.898;4.902;2023-09-19T09:51:44;14.88;;;2.45;;
20653;SDS011;21083;50.898;4.902;2023-09-19T09:54:22;15.02;;;1.92;;
20653;SDS011;21083;50.898;4.902;2023-09-19T09:56:52;17.17;;;2.15;;
20653;SDS011;21083;50.898;4.902;2023-09-19T10:02:25;13.82;;;2.28;;
20653;SDS011;21083;50.898;4.902;2023-09-19T10:04:58;14.85;;;1.92;;
20653;SDS011;21083;50.898;4.902;2023-09-19T10:07:35;17.17;;;2.38;;
20653;SDS011;21083;50.898;4.902;2023-09-19T10:10:06;15.32;;;2.58;;
20653;SDS011;21083;50.898;4.902;2023-09-19T10:12:45;11.00;;;1.85;;
20653;SDS011;21083;50.898;4.902;2023-09-19T10:15:16;13.27;;;2.88;;
20653;SDS011;21083;50.898;4.902;2023-09-19T10:17:46;17.80;;;2.05;;
20653;SDS011;21083;50.898;4.902;2023-09-19T10:20:13;13.98;;;2.63;;
20653;SDS011;21083;50.898;4.902;2023-09-19T10:22:59;15.82;;;1.98;;
20653;SDS011;21083;50.898;4.902;2023-09-19T10:25:27;15.88;;;2.33;;
20653;SDS011;21083;50.898;4.902;2023-09-19T10:27:56;12.52;;;1.73;;
20653;SDS011;21083;50.898;4.902;2023-09-19T10:30:30;9.43;;;2.25;;
20653;SDS011;21083;50.898;4.902;2023-09-19T10:33:00;8.27;;;1.40;;
20653;SDS011;21083;50.898;4.902;2023-09-19T10:35:29;11.60;;;1.83;;
20653;SDS011;21083;50.898;4.902;2023-09-19T10:37:59;12.30;;;2.30;;
20653;SDS011;21083;50.898;4.902;2023-09-19T10:40:28;10.63;;;1.73;;
20653;SDS011;21083;50.898;4.902;2023-09-19T10:43:00;13.40;;;1.70;;
20653;SDS011;21083;50.898;4.902;2023-09-19T10:45:33;14.05;;;1.92;;
20653;SDS011;21083;50.898;4.902;2023-09-19T10:48:04;14.27;;;1.67;;
20653;SDS011;21083;50.898;4.902;2023-09-19T10:50:33;10.02;;;1.58;;
20653;SDS011;21083;50.898;4.902;2023-09-19T10:53:04;11.60;;;2.05;;
20653;SDS011;21083;50.898;4.902;2023-09-19T10:55:33;9.40;;;1.52;;
20653;SDS011;21083;50.898;4.902;2023-09-19T10:58:02;10.75;;;1.20;;
20653;SDS011;21083;50.898;4.902;2023-09-19T11:00:53;12.48;;;2.15;;
20653;SDS011;21083;50.898;4.902;2023-09-19T11:03:22;8.15;;;1.35;;
20653;SDS011;21083;50.898;4.902;2023-09-19T11:08:54;10.25;;;1.77;;
20653;SDS011;21083;50.898;4.902;2023-09-19T11:11:47;12.52;;;1.67;;
20653;SDS011;21083;50.898;4.902;2023-09-19T11:14:30;6.28;;;1.45;;
20653;SDS011;21083;50.898;4.902;2023-09-19T11:20:22;12.13;;;1.70;;
20653;SDS011;21083;50.898;4.902;2023-09-19T11:23:22;8.63;;;1.10;;
20653;SDS011;21083;50.898;4.902;2023-09-19T11:25:51;8.18;;;1.40;;
20653;SDS011;21083;50.898;4.902;2023-09-19T11:28:29;3.95;;;0.90;;
20653;SDS011;21083;50.898;4.902;2023-09-19T11:30:56;8.38;;;1.42;;
20653;SDS011;21083;50.898;4.902;2023-09-19T11:33:24;9.57;;;1.42;;
20653;SDS011;21083;50.898;4.902;2023-09-19T11:36:01;10.32;;;1.40;;
20653;SDS011;21083;50.898;4.902;2023-09-19T11:41:38;9.10;;;1.02;;
20653;SDS011;21083;50.898;4.902;2023-09-19T11:47:00;6.25;;;0.90;;
20653;SDS011;21083;50.898;4.902;2023-09-19T11:49:29;10.02;;;1.10;;
20653;SDS011;21083;50.898;4.902;2023-09-19T11:51:59;10.68;;;1.15;;
20653;SDS011;21083;50.898;4.902;2023-09-19T11:54:30;5.38;;;1.05;;
20653;SDS011;21083;50.898;4.902;2023-09-19T11:56:58;8.85;;;1.05;;
20653;SDS011;21083;50.898;4.902;2023-09-19T11:59:28;7.78;;;1.10;;
20653;SDS011;21083;50.898;4.902;2023-09-19T12:01:56;8.07;;;1.38;;
20653;SDS011;21083;50.898;4.902;2023-09-19T12:04:36;7.43;;;1.30;;
20653;SDS011;21083;50.898;4.902;2023-09-19T12:07:08;7.30;;;1.40;;
20653;SDS011;21083;50.898;4.902;2023-09-19T12:09:41;5.85;;;0.82;;
20653;SDS011;21083;50.898;4.902;2023-09-19T12:12:09;6.72;;;1.00;;
20653;SDS011;21083;50.898;4.902;2023-09-19T12:14:40;7.60;;;1.05;;
20653;SDS011;21083;50.898;4.902;2023-09-19T12:17:08;8.25;;;1.05;;
20653;SDS011;21083;50.898;4.902;2023-09-19T12:19:35;11.45;;;1.25;;
20653;SDS011;21083;50.898;4.902;2023-09-19T12:22:03;5.95;;;1.10;;
20653;SDS011;21083;50.898;4.902;2023-09-19T12:24:32;7.70;;;1.02;;
20653;SDS011;21083;50.898;4.902;2023-09-19T12:27:04;6.10;;;0.95;;
20653;SDS011;21083;50.898;4.902;2023-09-19T12:29:32;6.10;;;1.20;;
20653;SDS011;21083;50.898;4.902;2023-09-19T12:34:42;5.00;;;1.00;;
20653;SDS011;21083;50.898;4.902;2023-09-19T12:37:10;8.10;;;1.60;;
20653;SDS011;21083;50.898;4.902;2023-09-19T12:39:39;9.95;;;1.08;;
20653;SDS011;21083;50.898;4.902;2023-09-19T12:42:12;3.08;;;0.70;;
20653;SDS011;21083;50.898;4.902;2023-09-19T12:44:40;5.35;;;0.93;;
20653;SDS011;21083;50.898;4.902;2023-09-19T12:47:11;7.75;;;0.70;;
20653;SDS011;21083;50.898;4.902;2023-09-19T12:52:40;5.88;;;1.23;;
20653;SDS011;21083;50.898;4.902;2023-09-19T12:55:16;10.23;;;1.33;;
20653;SDS011;21083;50.898;4.902;2023-09-19T12:57:55;11.63;;;1.50;;
20653;SDS011;21083;50.898;4.902;2023-09-19T13:00:31;7.90;;;0.98;;
20653;SDS011;21083;50.898;4.902;2023-09-19T13:03:15;6.20;;;0.90;;
20653;SDS011;21083;50.898;4.902;2023-09-19T13:05:50;9.88;;;0.85;;
20653;SDS011;21083;50.898;4.902;2023-09-19T13:08:20;7.15;;;0.98;;
20653;SDS011;21083;50.898;4.902;2023-09-19T13:11:05;10.45;;;1.35;;
20653;SDS011;21083;50.898;4.902;2023-09-19T13:13:34;5.53;;;0.80;;
20653;SDS011;21083;50.898;4.902;2023-09-19T13:16:02;9.05;;;0.90;;
20653;SDS011;21083;50.898;4.902;2023-09-19T13:18:41;8.18;;;1.30;;
20653;SDS011;21083;50.898;4.902;2023-09-19T13:21:10;8.00;;;0.95;;
20653;SDS011;21083;50.898;4.902;2023-09-19T13:23:41;16.25;;;1.20;;
20653;SDS011;21083;50.898;4.902;2023-09-19T13:26:10;3.13;;;0.80;;
20653;SDS011;21083;50.898;4.902;2023-09-19T13:28:38;12.63;;;1.42;;
20653;SDS011;21083;50.898;4.902;2023-09-19T13:31:06;5.75;;;1.13;;
20653;SDS011;21083;50.898;4.902;2023-09-19T13:33:35;5.75;;;0.77;;
20653;SDS011;21083;50.898;4.902;2023-09-19T13:36:11;6.03;;;0.80;;
20653;SDS011;21083;50.898;4.902;2023-09-19T13:38:38;8.38;;;1.30;;
20653;SDS011;21083;50.898;4.902;2023-09-19T13:41:08;4.05;;;1.05;;
20653;SDS011;21083;50.898;4.902;2023-09-19T13:43:37;12.68;;;1.10;;
20653;SDS011;21083;50.898;4.902;2023-09-19T13:46:04;9.15;;;1.38;;
20653;SDS011;21083;50.898;4.902;2023-09-19T13:48:37;5.80;;;0.90;;
20653;SDS011;21083;50.898;4.902;2023-09-19T13:51:04;7.85;;;1.38;;
20653;SDS011;21083;50.898;4.902;2023-09-19T13:53:31;10.50;;;1.08;;
20653;SDS011;21083;50.898;4.902;2023-09-19T13:55:58;6.28;;;0.98;;
20653;SDS011;21083;50.898;4.902;2023-09-19T13:58:25;8.30;;;1.15;;
20653;SDS011;21083;50.898;4.902;2023-09-19T14:00:55;7.20;;;1.10;;
20653;SDS011;21083;50.898;4.902;2023-09-19T14:03:23;4.90;;;0.80;;
20653;SDS011;21083;50.898;4.902;2023-09-19T14:05:53;4.70;;;0.88;;
20653;SDS011;21083;50.898;4.902;2023-09-19T14:08:20;7.53;;;1.00;;
20653;SDS011;21083;50.898;4.902;2023-09-19T14:10:48;5.95;;;0.85;;
20653;SDS011;21083;50.898;4.902;2023-09-19T14:13:15;8.88;;;1.13;;
20653;SDS011;21083;50.898;4.902;2023-09-19T14:15:42;6.35;;;1.25;;
20653;SDS011;21083;50.898;4.902;2023-09-19T14:18:10;6.40;;;0.98;;
20653;SDS011;21083;50.898;4.902;2023-09-19T14:20:37;5.05;;;1.13;;
20653;SDS011;21083;50.898;4.902;2023-09-19T14:23:06;8.18;;;1.05;;
20653;SDS011;21083;50.898;4.902;2023-09-19T14:25:33;4.32;;;1.15;;
20653;SDS011;21083;50.898;4.902;2023-09-19T14:28:01;6.55;;;1.13;;
20653;SDS011;21083;50.898;4.902;2023-09-19T14:30:28;8.98;;;1.10;;
20653;SDS011;21083;50.898;4.902;2023-09-19T14:32:55;7.18;;;0.95;;
20653;SDS011;21083;50.898;4.902;2023-09-19T14:35:25;4.63;;;1.23;;
20653;SDS011;21083;50.898;4.902;2023-09-19T14:37:52;8.32;;;1.00;;
20653;SDS011;21083;50.898;4.902;2023-09-19T14:40:20;5.72;;;0.88;;
20653;SDS011;21083;50.898;4.902;2023-09-19T14:42:48;4.57;;;1.17;;
20653;SDS011;21083;50.898;4.902;2023-09-19T14:45:15;7.38;;;1.48;;
20653;SDS011;21083;50.898;4.902;2023-09-19T14:47:43;7.88;;;1.20;;
20653;SDS011;21083;50.898;4.902;2023-09-19T14:50:12;6.85;;;1.48;;
20653;SDS011;21083;50.898;4.902;2023-09-19T14:52:41;4.85;;;1.00;;
20653;SDS011;21083;50.898;4.902;2023-09-19T14:55:09;7.10;;;1.08;;
20653;SDS011;21083;50.898;4.902;2023-09-19T14:57:40;7.25;;;1.25;;
20653;SDS011;21083;50.898;4.902;2023-09-19T15:00:10;4.47;;;0.90;;
20653;SDS011;21083;50.898;4.902;2023-09-19T15:02:38;9.55;;;1.38;;
20653;SDS011;21083;50.898;4.902;2023-09-19T15:05:06;6.13;;;1.30;;
20653;SDS011;21083;50.898;4.902;2023-09-19T15:07:34;6.55;;;1.48;;
20653;SDS011;21083;50.898;4.902;2023-09-19T15:10:04;6.80;;;1.60;;
20653;SDS011;21083;50.898;4.902;2023-09-19T15:12:35;7.90;;;1.80;;
20653;SDS011;21083;50.898;4.902;2023-09-19T15:15:03;9.65;;;1.63;;
20653;SDS011;21083;50.898;4.902;2023-09-19T15:17:33;10.77;;;2.35;;
20653;SDS011;21083;50.898;4.902;2023-09-19T15:20:00;9.93;;;2.00;;
20653;SDS011;21083;50.898;4.902;2023-09-19T15:22:31;7.88;;;2.25;;